Time;durP1;ratioP1;P1;durP2;ratioP2;P2;SDS_P1;SDS_P2;PMS_P1;PMS_P2;Temp;Humidity;BMP_temperature;BMP_pressure;BME280_temperature;BME280_humidity;BME280_pressure;Samples;Min_cycle;Max_cycle;Signal;HPM_P1;HPM_P2
2021/10/07 00:02:02;;;;;;;;;;;8.60;99.90;;;;;;4994569;28;19929;-71
2021/10/07 00:04:30;;;;;;;;;;;8.50;99.90;;;;;;5010365;28;19926;-72
2021/10/07 00:06:57;;;;;;;;;;;8.60;99.90;;;;;;5011845;28;19933;-73
2021/10/07 00:09:24;;;;;;;;;;;8.60;99.90;;;;;;4994488;28;19926;-71
2021/10/07 00:11:56;;;;;;;;;;;8.50;99.90;;;;;;5012146;28;19988;-71
2021/10/07 00:14:27;;;;;;;;;;;8.60;99.90;;;;;;5010435;28;19926;-71
2021/10/07 00:16:54;;;;;;;;;;;8.50;99.90;;;;;;4994370;28;19933;-71
2021/10/07 00:19:21;;;;;;;;;;;8.50;99.90;;;;;;4994379;28;19929;-71
2021/10/07 00:21:52;;;;;;;;;;;8.50;99.90;;;;;;4994247;28;20274;-72
2021/10/07 00:24:24;;;;;;;;;;;8.50;99.90;;;;;;4993569;28;19926;-71
2021/10/07 00:26:57;;;;;;;;;;;8.60;99.90;;;;;;4995238;28;19932;-72
2021/10/07 00:32:15;;;;;;;;;;;8.60;99.90;;;;;;5011638;28;19926;-73
2021/10/07 00:39:54;;;;;;;;;;;8.80;99.90;;;;;;4994522;28;19932;-72
2021/10/07 00:42:21;;;;;;;;;;;8.70;99.90;;;;;;4995025;28;19926;-72
2021/10/07 00:44:53;;;;;;;;;;;8.80;99.90;;;;;;5009877;28;19925;-73
2021/10/07 00:47:19;;;;;;;;;;;8.80;99.90;;;;;;5010469;28;19933;-72
2021/10/07 00:49:51;;;;;;;;;;;8.80;99.90;;;;;;5011158;28;19933;-73
2021/10/07 00:52:23;;;;;;;;;;;8.80;99.90;;;;;;4993846;28;19925;-72
2021/10/07 00:54:55;;;;;;;;;;;8.80;99.90;;;;;;5009470;28;19933;-72
2021/10/07 00:57:22;;;;;;;;;;;8.80;99.90;;;;;;4993603;28;19930;-72
2021/10/07 00:59:54;;;;;;;;;;;8.80;99.90;;;;;;5009689;28;19930;-72
2021/10/07 01:02:21;;;;;;;;;;;8.70;99.90;;;;;;4993131;28;20336;-71
2021/10/07 01:04:53;;;;;;;;;;;8.70;99.90;;;;;;4992002;28;19930;-72
2021/10/07 01:07:22;;;;;;;;;;;8.60;99.90;;;;;;4992595;28;19933;-72
2021/10/07 01:09:54;;;;;;;;;;;8.60;99.90;;;;;;4992810;28;20300;-71
2021/10/07 01:12:25;;;;;;;;;;;8.60;99.90;;;;;;5009213;28;19925;-71
2021/10/07 01:14:53;;;;;;;;;;;8.60;99.90;;;;;;4991622;28;19932;-72
2021/10/07 01:17:29;;;;;;;;;;;8.60;99.90;;;;;;4993540;28;19926;-73
2021/10/07 01:19:57;;;;;;;;;;;8.70;99.90;;;;;;5009508;28;20447;-72
2021/10/07 01:22:25;;;;;;;;;;;8.70;99.90;;;;;;4993479;28;19925;-72
2021/10/07 01:24:53;;;;;;;;;;;8.70;99.90;;;;;;5008833;28;19925;-72
2021/10/07 01:27:21;;;;;;;;;;;8.80;99.90;;;;;;4992773;28;19925;-72
2021/10/07 01:29:54;;;;;;;;;;;8.80;99.90;;;;;;4992726;28;19929;-72
2021/10/07 01:32:21;;;;;;;;;;;8.90;99.90;;;;;;4993189;28;19996;-72
2021/10/07 01:34:53;;;;;;;;;;;8.90;99.90;;;;;;4992759;28;19929;-71
2021/10/07 01:37:20;;;;;;;;;;;8.90;99.90;;;;;;4996031;28;19968;-71
2021/10/07 01:39:51;;;;;;;;;;;8.90;99.90;;;;;;5014757;28;19930;-72
2021/10/07 01:42:23;;;;;;;;;;;8.90;99.90;;;;;;4998046;28;19925;-72
2021/10/07 01:44:55;;;;;;;;;;;9.00;99.90;;;;;;4996553;28;20384;-71
2021/10/07 01:47:27;;;;;;;;;;;9.00;99.90;;;;;;4997916;28;19926;-72
2021/10/07 01:49:59;;;;;;;;;;;9.00;99.90;;;;;;4997499;28;20367;-73
2021/10/07 01:52:30;;;;;;;;;;;8.90;99.90;;;;;;4997788;28;19926;-72
2021/10/07 01:55:02;;;;;;;;;;;8.90;99.90;;;;;;4996471;28;20388;-72
2021/10/07 01:57:34;;;;;;;;;;;8.90;99.90;;;;;;5014414;28;19925;-71
2021/10/07 02:00:08;;;;;;;;;;;8.90;99.90;;;;;;5014396;28;19925;-72
2021/10/07 02:02:40;;;;;;;;;;;8.90;99.90;;;;;;5014419;28;19925;-72
2021/10/07 02:05:12;;;;;;;;;;;8.90;99.90;;;;;;4996046;28;19937;-72
2021/10/07 02:07:39;;;;;;;;;;;8.90;99.90;;;;;;4996655;28;19925;-72
2021/10/07 02:10:17;;;;;;;;;;;9.00;99.90;;;;;;4997626;28;19933;-72
2021/10/07 02:12:45;;;;;;;;;;;9.00;99.90;;;;;;4996485;28;19933;-72
2021/10/07 02:15:17;;;;;;;;;;;9.00;99.90;;;;;;5013711;28;19925;-72
2021/10/07 02:17:49;;;;;;;;;;;9.00;99.90;;;;;;4997539;28;20277;-72
2021/10/07 02:20:21;;;;;;;;;;;9.10;99.90;;;;;;4996465;28;19925;-72
2021/10/07 02:22:53;;;;;;;;;;;9.10;99.90;;;;;;4997245;28;19972;-73
2021/10/07 02:25:19;;;;;;;;;;;9.10;99.90;;;;;;4996036;28;19925;-72
2021/10/07 02:27:51;;;;;;;;;;;9.10;99.90;;;;;;4996389;28;19930;-72
2021/10/07 02:30:23;;;;;;;;;;;9.10;99.90;;;;;;4996261;28;19929;-73
2021/10/07 02:32:55;;;;;;;;;;;9.10;99.90;;;;;;4996915;28;19925;-71
2021/10/07 02:35:27;;;;;;;;;;;9.10;99.90;;;;;;5013166;28;19925;-72
2021/10/07 02:37:54;;;;;;;;;;;9.10;99.90;;;;;;4995893;28;20300;-73
2021/10/07 02:40:27;;;;;;;;;;;9.10;99.90;;;;;;5012335;28;19925;-73
2021/10/07 02:42:59;;;;;;;;;;;9.00;99.90;;;;;;4997017;28;19926;-72
2021/10/07 02:45:26;;;;;;;;;;;9.00;99.90;;;;;;4995233;28;20285;-72
2021/10/07 02:47:58;;;;;;;;;;;9.00;99.90;;;;;;5013294;28;19933;-74
2021/10/07 02:50:30;;;;;;;;;;;9.00;99.90;;;;;;4995730;28;19972;-72
2021/10/07 02:52:57;;;;;;;;;;;9.00;99.90;;;;;;5013155;28;19929;-72
2021/10/07 02:55:29;;;;;;;;;;;9.00;99.90;;;;;;4979967;28;19979;-71
2021/10/07 02:58:00;;;;;;;;;;;9.00;99.90;;;;;;4980295;28;19972;-73
2021/10/07 03:00:32;;;;;;;;;;;9.10;99.90;;;;;;5013058;28;19999;-71
2021/10/07 03:03:04;;;;;;;;;;;9.10;99.90;;;;;;4996456;28;19925;-72
2021/10/07 03:05:34;;;;;;;;;;;9.10;99.90;;;;;;5011410;28;19925;-72
2021/10/07 03:08:06;;;;;;;;;;;9.10;99.90;;;;;;5012856;28;19929;-72
2021/10/07 03:10:32;;;;;;;;;;;9.10;99.90;;;;;;5011650;28;19994;-72
2021/10/07 03:13:04;;;;;;;;;;;9.00;99.90;;;;;;4995384;28;19925;-73
2021/10/07 03:15:36;;;;;;;;;;;9.00;99.90;;;;;;4979165;28;19933;-71
2021/10/07 03:18:08;;;;;;;;;;;9.00;99.90;;;;;;4995894;28;19929;-74
2021/10/07 03:20:40;;;;;;;;;;;8.90;99.90;;;;;;5012111;28;19925;-72
2021/10/07 03:23:06;;;;;;;;;;;8.90;99.90;;;;;;5012448;28;20340;-72
2021/10/07 03:25:38;;;;;;;;;;;9.00;99.90;;;;;;4995310;28;19926;-73
2021/10/07 03:28:10;;;;;;;;;;;9.00;99.90;;;;;;5012520;28;20392;-71
2021/10/07 03:30:42;;;;;;;;;;;9.00;99.90;;;;;;4995181;28;19933;-72
2021/10/07 03:33:09;;;;;;;;;;;9.00;99.90;;;;;;4994168;28;20161;-72
2021/10/07 03:35:41;;;;;;;;;;;9.10;99.90;;;;;;4994234;28;19968;-72
2021/10/07 03:38:14;;;;;;;;;;;9.10;99.90;;;;;;4994573;28;19956;-72
2021/10/07 03:40:46;;;;;;;;;;;9.10;99.90;;;;;;4979009;28;19933;-72
2021/10/07 03:43:18;;;;;;;;;;;9.00;99.90;;;;;;4994508;28;19925;-72
2021/10/07 03:45:45;;;;;;;;;;;9.00;99.90;;;;;;4993916;28;20376;-71
2021/10/07 03:48:12;;;;;;;;;;;9.00;99.90;;;;;;4994289;28;19932;-73
2021/10/07 03:50:43;;;;;;;;;;;9.00;99.90;;;;;;4994630;28;19941;-72
2021/10/07 03:53:15;;;;;;;;;;;8.90;99.90;;;;;;4993629;28;19967;-72
2021/10/07 03:55:42;;;;;;;;;;;8.90;99.90;;;;;;4993115;28;19926;-72
2021/10/07 03:58:14;;;;;;;;;;;8.80;99.90;;;;;;4993089;28;19979;-72
2021/10/07 04:00:40;;;;;;;;;;;8.70;99.90;;;;;;5011046;28;20029;-73
2021/10/07 04:03:12;;;;;;;;;;;8.80;99.90;;;;;;4993730;28;20039;-72
2021/10/07 04:05:39;;;;;;;;;;;8.70;99.90;;;;;;5009274;28;19948;-73
2021/10/07 04:08:11;;;;;;;;;;;8.70;99.90;;;;;;4994494;28;19930;-73
2021/10/07 04:10:38;;;;;;;;;;;8.70;99.90;;;;;;4993143;28;19925;-72
2021/10/07 04:13:09;;;;;;;;;;;8.70;99.90;;;;;;4997486;28;19992;-72
2021/10/07 04:15:41;;;;;;;;;;;8.80;99.90;;;;;;4993319;28;19929;-72
2021/10/07 04:18:08;;;;;;;;;;;8.70;99.90;;;;;;4993758;28;20028;-72
2021/10/07 04:20:41;;;;;;;;;;;8.70;99.90;;;;;;4994844;28;19937;-72
2021/10/07 04:23:08;;;;;;;;;;;8.70;99.90;;;;;;4993514;28;19925;-72
2021/10/07 04:25:40;;;;;;;;;;;8.80;99.90;;;;;;5010749;28;19925;-73
2021/10/07 04:28:12;;;;;;;;;;;8.80;99.90;;;;;;5010249;28;20032;-71
2021/10/07 04:30:43;;;;;;;;;;;8.80;99.90;;;;;;4977959;28;20002;-72
2021/10/07 04:33:15;;;;;;;;;;;8.80;99.90;;;;;;4994984;28;19979;-71
2021/10/07 04:35:42;;;;;;;;;;;8.80;99.90;;;;;;4993558;28;19926;-72
2021/10/07 04:38:14;;;;;;;;;;;8.90;99.90;;;;;;4993834;28;19925;-72
2021/10/07 04:40:46;;;;;;;;;;;8.90;99.90;;;;;;4986858;28;19925;-72
2021/10/07 04:43:13;;;;;;;;;;;8.90;99.90;;;;;;4994153;28;19925;-71
2021/10/07 04:45:44;;;;;;;;;;;8.90;99.90;;;;;;4993793;28;19932;-71
2021/10/07 04:48:16;;;;;;;;;;;8.90;99.90;;;;;;5011841;28;19936;-72
2021/10/07 04:50:48;;;;;;;;;;;8.90;99.90;;;;;;4993867;28;19972;-71
2021/10/07 04:53:20;;;;;;;;;;;8.90;99.90;;;;;;4986449;28;19926;-72
2021/10/07 04:55:55;;;;;;;;;;;8.90;99.90;;;;;;4976371;28;20306;-73
2021/10/07 04:58:26;;;;;;;;;;;8.90;99.90;;;;;;4976032;28;19931;-72
2021/10/07 05:00:58;;;;;;;;;;;8.80;99.90;;;;;;4983347;28;19930;-72
2021/10/07 05:03:30;;;;;;;;;;;8.80;99.90;;;;;;4974552;28;19932;-71
2021/10/07 05:06:01;;;;;;;;;;;8.90;99.90;;;;;;4974387;28;19941;-72
2021/10/07 05:08:33;;;;;;;;;;;8.80;99.90;;;;;;4973058;28;19930;-72
2021/10/07 05:11:05;;;;;;;;;;;8.80;99.90;;;;;;4974644;28;20407;-72
2021/10/07 05:13:33;;;;;;;;;;;8.80;99.90;;;;;;4995614;28;19926;-72
2021/10/07 05:15:59;;;;;;;;;;;8.70;99.90;;;;;;4977649;28;19981;-72
2021/10/07 05:18:26;;;;;;;;;;;8.70;99.90;;;;;;4995113;28;19926;-72
2021/10/07 05:20:53;;;;;;;;;;;8.70;99.90;;;;;;4977635;28;20003;-72
2021/10/07 05:23:20;;;;;;;;;;;8.70;99.90;;;;;;4993816;28;19945;-71
2021/10/07 05:25:52;;;;;;;;;;;8.70;99.90;;;;;;4976996;28;20360;-72
2021/10/07 05:28:18;;;;;;;;;;;8.70;99.90;;;;;;4977474;28;19932;-72
2021/10/07 05:30:51;;;;;;;;;;;8.70;99.90;;;;;;4978693;28;19929;-72
2021/10/07 05:33:20;;;;;;;;;;;8.70;99.90;;;;;;5008328;28;19929;-73
2021/10/07 05:35:46;;;;;;;;;;;8.70;99.90;;;;;;4981391;28;19926;-72
2021/10/07 05:38:19;;;;;;;;;;;8.60;99.90;;;;;;4982499;28;20372;-71
2021/10/07 05:40:50;;;;;;;;;;;8.60;99.90;;;;;;4990026;28;20404;-72
2021/10/07 05:43:17;;;;;;;;;;;8.60;99.90;;;;;;4989811;28;19932;-72
2021/10/07 05:45:49;;;;;;;;;;;8.70;99.90;;;;;;4974165;28;19951;-72
2021/10/07 05:48:21;;;;;;;;;;;8.60;99.90;;;;;;4971231;28;19953;-72
2021/10/07 05:50:53;;;;;;;;;;;8.70;99.90;;;;;;4989939;28;19957;-72
2021/10/07 05:53:25;;;;;;;;;;;8.70;99.90;;;;;;4986394;28;19941;-70
2021/10/07 05:55:56;;;;;;;;;;;8.90;99.90;;;;;;4995766;28;19933;-70
2021/10/07 05:58:28;;;;;;;;;;;9.00;99.90;;;;;;4961936;28;19925;-71
2021/10/07 06:01:00;;;;;;;;;;;9.00;99.90;;;;;;4961815;28;19930;-71
2021/10/07 06:03:33;;;;;;;;;;;9.00;99.90;;;;;;4977479;28;20381;-71
2021/10/07 06:06:04;;;;;;;;;;;9.10;99.90;;;;;;4994162;28;19930;-71
2021/10/07 06:08:31;;;;;;;;;;;9.10;99.90;;;;;;4977350;28;19926;-71
2021/10/07 06:11:03;;;;;;;;;;;9.10;99.90;;;;;;4986469;28;19926;-72
2021/10/07 06:13:35;;;;;;;;;;;9.10;99.90;;;;;;4986586;28;19930;-71
2021/10/07 06:16:07;;;;;;;;;;;9.10;99.90;;;;;;4974827;28;20439;-72
2021/10/07 06:18:35;;;;;;;;;;;9.10;99.90;;;;;;4977234;28;19954;-71
2021/10/07 06:21:07;;;;;;;;;;;9.20;99.90;;;;;;4977747;28;19926;-72
2021/10/07 06:23:34;;;;;;;;;;;9.20;99.90;;;;;;4979081;28;19980;-71
2021/10/07 06:26:06;;;;;;;;;;;9.20;99.90;;;;;;4977613;28;19926;-71
2021/10/07 06:28:37;;;;;;;;;;;9.20;99.90;;;;;;5008075;28;19932;-71
2021/10/07 06:31:09;;;;;;;;;;;9.20;99.90;;;;;;4980316;28;19930;-72
2021/10/07 06:33:41;;;;;;;;;;;9.20;99.90;;;;;;4994388;28;19929;-70
2021/10/07 06:36:13;;;;;;;;;;;9.20;99.90;;;;;;4994340;28;19930;-71
2021/10/07 06:38:40;;;;;;;;;;;9.20;99.90;;;;;;4989789;28;19926;-72
2021/10/07 06:41:06;;;;;;;;;;;9.20;99.90;;;;;;4995009;28;19972;-71
2021/10/07 06:43:38;;;;;;;;;;;9.20;99.90;;;;;;5013017;28;20460;-71
2021/10/07 06:46:05;;;;;;;;;;;9.20;99.90;;;;;;5012005;28;19937;-71
2021/10/07 06:48:37;;;;;;;;;;;9.20;99.90;;;;;;4979682;28;19930;-71
2021/10/07 06:51:12;;;;;;;;;;;9.20;99.90;;;;;;4967254;28;19929;-73
2021/10/07 06:53:49;;;;;;;;;;;9.20;99.90;;;;;;4996282;28;20397;-71
2021/10/07 06:56:22;;;;;;;;;;;9.30;99.90;;;;;;4970399;28;19980;-71
2021/10/07 06:58:54;;;;;;;;;;;9.30;99.90;;;;;;4999353;28;19933;-71
2021/10/07 07:01:25;;;;;;;;;;;9.30;99.90;;;;;;4992569;28;19925;-72
2021/10/07 07:03:53;;;;;;;;;;;9.40;99.90;;;;;;5001543;28;19941;-71
2021/10/07 07:06:25;;;;;;;;;;;9.50;99.90;;;;;;4976550;28;20699;-71
2021/10/07 07:08:58;;;;;;;;;;;9.50;99.90;;;;;;4975802;28;19930;-71
2021/10/07 07:11:30;;;;;;;;;;;9.50;99.90;;;;;;4975820;28;20300;-71
2021/10/07 07:14:05;;;;;;;;;;;9.60;99.90;;;;;;4974167;28;20416;-71
2021/10/07 07:16:37;;;;;;;;;;;9.60;99.90;;;;;;5006982;28;19967;-71
2021/10/07 07:19:09;;;;;;;;;;;9.70;99.90;;;;;;4996410;28;19962;-71
2021/10/07 07:21:36;;;;;;;;;;;9.70;99.90;;;;;;4949874;28;19930;-73
2021/10/07 07:24:04;;;;;;;;;;;9.70;99.90;;;;;;4978044;28;19926;-74
2021/10/07 07:26:36;;;;;;;;;;;9.80;99.90;;;;;;4974012;28;19926;-71
2021/10/07 07:29:08;;;;;;;;;;;9.80;99.90;;;;;;4996574;28;19949;-71
2021/10/07 07:31:39;;;;;;;;;;;9.90;99.90;;;;;;4986378;28;19926;-71
2021/10/07 07:34:11;;;;;;;;;;;9.90;99.90;;;;;;4980377;28;19981;-72
2021/10/07 07:36:43;;;;;;;;;;;10.00;99.90;;;;;;4995120;28;19925;-72
2021/10/07 07:39:15;;;;;;;;;;;10.00;99.90;;;;;;4975437;28;20141;-71
2021/10/07 07:41:47;;;;;;;;;;;10.10;99.90;;;;;;4991323;28;19925;-71
2021/10/07 07:44:13;;;;;;;;;;;10.10;99.90;;;;;;4992351;28;19973;-71
2021/10/07 07:46:45;;;;;;;;;;;10.20;99.90;;;;;;4960100;28;19985;-71
2021/10/07 07:49:12;;;;;;;;;;;10.20;99.90;;;;;;4992727;28;19988;-72
2021/10/07 07:51:39;;;;;;;;;;;10.20;99.90;;;;;;4992691;28;19926;-71
2021/10/07 07:54:06;;;;;;;;;;;10.30;99.90;;;;;;4992516;28;19936;-71
2021/10/07 07:56:37;;;;;;;;;;;10.40;99.90;;;;;;4956363;28;19933;-71
2021/10/07 07:59:07;;;;;;;;;;;10.50;99.90;;;;;;4991581;28;20312;-74
2021/10/07 08:01:40;;;;;;;;;;;10.60;99.90;;;;;;4969355;28;20476;-71
2021/10/07 08:04:12;;;;;;;;;;;10.70;99.90;;;;;;4977972;28;19926;-71
2021/10/07 08:06:39;;;;;;;;;;;10.70;99.90;;;;;;4992448;28;19933;-73
2021/10/07 08:09:11;;;;;;;;;;;10.60;99.90;;;;;;4969607;28;19934;-72
2021/10/07 08:11:43;;;;;;;;;;;10.50;99.90;;;;;;4977325;28;19926;-72
2021/10/07 08:14:15;;;;;;;;;;;10.60;99.90;;;;;;4987067;28;20123;-71
2021/10/07 08:16:47;;;;;;;;;;;10.60;99.90;;;;;;4991946;28;19925;-71
2021/10/07 08:19:14;;;;;;;;;;;10.60;99.90;;;;;;4957057;28;19925;-73
2021/10/07 08:21:45;;;;;;;;;;;10.60;99.90;;;;;;4993222;28;19937;-72
2021/10/07 08:24:22;;;;;;;;;;;10.60;99.90;;;;;;4975159;28;19933;-71
2021/10/07 08:26:49;;;;;;;;;;;10.50;99.90;;;;;;4981861;28;19930;-72
2021/10/07 08:29:16;;;;;;;;;;;10.50;99.90;;;;;;4972638;28;19934;-71
2021/10/07 08:31:43;;;;;;;;;;;10.50;99.90;;;;;;4985225;28;19981;-71
2021/10/07 08:34:15;;;;;;;;;;;10.50;99.90;;;;;;4979509;28;19933;-72
2021/10/07 08:36:43;;;;;;;;;;;10.60;99.90;;;;;;4970789;28;19926;-71
2021/10/07 08:39:10;;;;;;;;;;;10.70;99.90;;;;;;4996580;28;20396;-71
2021/10/07 08:41:45;;;;;;;;;;;10.70;99.90;;;;;;5003665;28;19933;-71
2021/10/07 08:44:18;;;;;;;;;;;10.90;99.90;;;;;;4974222;28;20625;-71
2021/10/07 08:46:50;;;;;;;;;;;10.90;99.90;;;;;;4962406;28;19977;-72
2021/10/07 08:49:20;;;;;;;;;;;11.00;99.90;;;;;;4980352;28;19926;-71
2021/10/07 08:51:52;;;;;;;;;;;11.10;99.90;;;;;;5015347;28;19932;-71
2021/10/07 08:54:24;;;;;;;;;;;11.10;99.90;;;;;;4998458;28;19925;-71
2021/10/07 08:56:56;;;;;;;;;;;11.10;99.90;;;;;;5015636;28;20397;-73
2021/10/07 08:59:28;;;;;;;;;;;11.20;99.90;;;;;;4982319;28;19925;-71
2021/10/07 09:01:57;;;;;;;;;;;11.30;99.90;;;;;;4997874;28;20492;-71
2021/10/07 09:04:30;;;;;;;;;;;11.30;99.90;;;;;;4998065;28;19948;-71
2021/10/07 09:07:09;;;;;;;;;;;11.30;99.90;;;;;;4982171;28;19926;-73
2021/10/07 09:09:38;;;;;;;;;;;11.30;99.90;;;;;;4992658;28;19934;-71
2021/10/07 09:12:12;;;;;;;;;;;11.40;99.90;;;;;;4976190;28;19925;-71
2021/10/07 09:14:45;;;;;;;;;;;11.40;99.90;;;;;;4982042;28;19926;-71
2021/10/07 09:17:13;;;;;;;;;;;11.40;99.90;;;;;;4978100;28;19925;-71
2021/10/07 09:19:46;;;;;;;;;;;11.40;99.90;;;;;;4978979;28;20297;-71
2021/10/07 09:22:39;;;;;;;;;;;11.40;99.90;;;;;;4994405;28;20385;-71
2021/10/07 09:25:05;;;;;;;;;;;11.40;99.90;;;;;;4993794;28;20000;-71
2021/10/07 09:27:37;;;;;;;;;;;11.50;99.90;;;;;;4977740;28;20321;-71
2021/10/07 09:30:11;;;;;;;;;;;11.50;99.90;;;;;;4997573;28;19948;-71
2021/10/07 09:32:51;;;;;;;;;;;11.60;99.90;;;;;;4980879;28;19985;-71
2021/10/07 09:35:23;;;;;;;;;;;11.60;99.90;;;;;;4977289;28;19941;-71
2021/10/07 09:37:59;;;;;;;;;;;11.60;99.90;;;;;;4977510;28;19976;-71
2021/10/07 09:40:31;;;;;;;;;;;11.60;99.90;;;;;;4977648;28;20016;-72
2021/10/07 09:43:03;;;;;;;;;;;11.60;99.90;;;;;;4980163;28;19925;-72
2021/10/07 09:45:31;;;;;;;;;;;11.60;99.90;;;;;;4982607;28;20404;-71
2021/10/07 09:48:04;;;;;;;;;;;11.60;99.90;;;;;;4977462;28;20277;-72
2021/10/07 09:50:38;;;;;;;;;;;11.60;99.90;;;;;;4978274;28;19929;-71
2021/10/07 09:53:08;;;;;;;;;;;11.70;99.90;;;;;;4992847;28;19929;-71
2021/10/07 09:55:37;;;;;;;;;;;11.70;99.90;;;;;;4976309;28;19926;-71
2021/10/07 09:58:15;;;;;;;;;;;11.70;99.90;;;;;;5002738;28;19933;-71
2021/10/07 10:00:47;;;;;;;;;;;11.70;99.90;;;;;;4977228;28;19932;-71
2021/10/07 10:03:21;;;;;;;;;;;11.80;99.90;;;;;;4977509;28;19932;-71
2021/10/07 10:05:53;;;;;;;;;;;11.80;99.90;;;;;;4994061;28;19926;-71
2021/10/07 10:08:20;;;;;;;;;;;11.90;99.90;;;;;;4996633;28;20384;-72
2021/10/07 10:10:48;;;;;;;;;;;11.90;99.90;;;;;;5012808;28;20426;-71
2021/10/07 10:13:16;;;;;;;;;;;12.00;99.90;;;;;;4980448;28;19925;-71
2021/10/07 10:15:48;;;;;;;;;;;12.00;99.90;;;;;;5014003;28;19929;-71
2021/10/07 10:18:19;;;;;;;;;;;12.10;99.90;;;;;;4988841;28;19953;-71
2021/10/07 10:20:52;;;;;;;;;;;12.10;99.90;;;;;;4993341;28;19926;-71
2021/10/07 10:23:25;;;;;;;;;;;12.20;99.90;;;;;;4978235;28;19933;-71
2021/10/07 10:25:59;;;;;;;;;;;12.30;99.90;;;;;;4992767;28;19930;-71
2021/10/07 10:28:50;;;;;;;;;;;12.30;99.90;;;;;;4994560;28;20025;-71
2021/10/07 10:31:27;;;;;;;;;;;12.40;99.90;;;;;;4976972;28;19926;-71
2021/10/07 10:34:20;;;;;;;;;;;12.40;99.90;;;;;;4975947;28;19926;-74
2021/10/07 10:36:56;;;;;;;;;;;12.30;99.90;;;;;;4972772;28;20235;-71
2021/10/07 10:39:23;;;;;;;;;;;12.30;99.90;;;;;;4997605;28;19933;-71
2021/10/07 10:41:55;;;;;;;;;;;12.40;99.90;;;;;;4984520;28;19933;-74
2021/10/07 10:44:28;;;;;;;;;;;12.40;99.90;;;;;;4975394;28;19933;-71
2021/10/07 10:47:13;;;;;;;;;;;12.50;99.90;;;;;;5004256;28;19925;-71
2021/10/07 10:49:52;;;;;;;;;;;12.50;99.90;;;;;;4996050;28;19937;-71
2021/10/07 10:52:45;;;;;;;;;;;12.60;99.90;;;;;;4989846;28;19981;-71
2021/10/07 10:55:18;;;;;;;;;;;12.60;99.90;;;;;;4983978;28;19944;-71
2021/10/07 10:57:46;;;;;;;;;;;12.70;99.90;;;;;;4991218;28;19926;-72
2021/10/07 11:00:13;;;;;;;;;;;12.80;99.90;;;;;;4979785;28;19925;-72
2021/10/07 11:02:46;;;;;;;;;;;12.90;99.90;;;;;;4975402;28;19932;-73
2021/10/07 11:05:21;;;;;;;;;;;12.90;99.90;;;;;;4995499;28;19926;-71
2021/10/07 11:08:08;;;;;;;;;;;12.90;99.90;;;;;;4971254;28;19926;-71
2021/10/07 11:10:39;;;;;;;;;;;13.00;99.90;;;;;;4999296;28;20451;-71
2021/10/07 11:13:12;;;;;;;;;;;12.90;99.90;;;;;;4989539;28;19926;-74
2021/10/07 11:15:39;;;;;;;;;;;13.00;99.90;;;;;;4964138;28;19977;-72
2021/10/07 11:18:10;;;;;;;;;;;12.90;99.90;;;;;;4976404;28;19933;-74
2021/10/07 11:20:44;;;;;;;;;;;13.00;99.90;;;;;;4982084;28;19933;-71
2021/10/07 11:23:17;;;;;;;;;;;13.10;99.90;;;;;;4984136;28;20387;-71
2021/10/07 11:25:50;;;;;;;;;;;13.10;99.90;;;;;;4990898;28;19933;-72
2021/10/07 11:28:24;;;;;;;;;;;13.20;99.90;;;;;;4973042;28;19933;-73
2021/10/07 11:31:09;;;;;;;;;;;13.20;99.90;;;;;;5011090;28;20388;-71
2021/10/07 11:33:42;;;;;;;;;;;13.30;99.90;;;;;;4993563;28;19999;-71
2021/10/07 11:36:10;;;;;;;;;;;13.40;99.90;;;;;;4999815;28;19926;-71
2021/10/07 11:38:43;;;;;;;;;;;13.40;99.90;;;;;;4992004;28;19933;-73
2021/10/07 11:41:11;;;;;;;;;;;13.40;99.90;;;;;;4970730;28;19941;-73
2021/10/07 11:43:44;;;;;;;;;;;13.40;99.90;;;;;;4974533;28;19941;-72
2021/10/07 11:46:12;;;;;;;;;;;13.30;99.90;;;;;;4981053;28;19925;-72
2021/10/07 11:48:49;;;;;;;;;;;13.30;99.90;;;;;;4993427;28;19952;-73
2021/10/07 11:51:22;;;;;;;;;;;13.20;99.90;;;;;;4977266;28;19933;-74
2021/10/07 11:53:51;;;;;;;;;;;13.10;99.90;;;;;;5008231;28;19925;-72
2021/10/07 11:56:25;;;;;;;;;;;13.10;99.90;;;;;;4993808;28;19926;-72
2021/10/07 11:58:58;;;;;;;;;;;13.00;99.90;;;;;;4995084;28;20007;-72
2021/10/07 12:01:29;;;;;;;;;;;13.00;99.90;;;;;;5002939;28;19926;-72
2021/10/07 12:04:01;;;;;;;;;;;13.00;99.90;;;;;;4986833;28;19932;-72
2021/10/07 12:06:35;;;;;;;;;;;13.00;99.90;;;;;;4993503;28;19925;-73
2021/10/07 12:09:03;;;;;;;;;;;13.00;99.90;;;;;;4994178;28;20006;-72
2021/10/07 12:11:31;;;;;;;;;;;13.00;99.90;;;;;;5005202;28;20024;-73
2021/10/07 12:14:03;;;;;;;;;;;13.10;99.90;;;;;;4993270;28;19932;-73
2021/10/07 12:16:37;;;;;;;;;;;13.20;99.90;;;;;;5011878;28;19925;-71
2021/10/07 12:19:10;;;;;;;;;;;13.30;99.90;;;;;;5011249;28;19925;-72
2021/10/07 12:21:37;;;;;;;;;;;13.30;99.90;;;;;;4986300;28;19930;-72
2021/10/07 12:24:13;;;;;;;;;;;13.40;99.90;;;;;;5005507;28;19948;-74
2021/10/07 12:26:47;;;;;;;;;;;13.30;99.90;;;;;;4977194;28;19930;-73
2021/10/07 12:29:15;;;;;;;;;;;13.30;99.90;;;;;;4985483;28;19953;-73
2021/10/07 12:31:48;;;;;;;;;;;13.40;99.90;;;;;;4975672;28;20265;-73
2021/10/07 12:34:16;;;;;;;;;;;13.40;99.90;;;;;;4992424;28;19930;-73
2021/10/07 12:36:48;;;;;;;;;;;13.40;99.90;;;;;;4975042;28;19926;-73
2021/10/07 12:39:41;;;;;;;;;;;13.50;99.90;;;;;;4975932;28;19930;-73
2021/10/07 12:42:09;;;;;;;;;;;13.70;99.90;;;;;;4963511;28;19933;-73
2021/10/07 12:44:37;;;;;;;;;;;14.00;99.90;;;;;;4992043;28;19930;-73
2021/10/07 12:47:06;;;;;;;;;;;14.20;99.90;;;;;;5001666;28;20407;-73
2021/10/07 12:49:42;;;;;;;;;;;14.30;99.90;;;;;;4986022;28;19930;-72
2021/10/07 12:52:13;;;;;;;;;;;14.30;99.90;;;;;;4974314;28;20286;-72
2021/10/07 12:54:40;;;;;;;;;;;14.20;99.90;;;;;;4990820;28;20416;-73
2021/10/07 12:57:12;;;;;;;;;;;14.20;99.90;;;;;;4973990;28;19926;-73
2021/10/07 12:59:55;;;;;;;;;;;14.10;99.90;;;;;;4974545;28;19926;-73
2021/10/07 13:02:27;;;;;;;;;;;14.10;99.90;;;;;;4982379;28;19925;-73
2021/10/07 13:05:14;;;;;;;;;;;14.10;99.90;;;;;;4970554;28;19926;-73
2021/10/07 13:07:41;;;;;;;;;;;14.10;99.90;;;;;;4979945;28;20416;-73
2021/10/07 13:10:08;;;;;;;;;;;14.00;99.90;;;;;;4992904;28;19930;-73
2021/10/07 13:12:35;;;;;;;;;;;14.00;99.90;;;;;;4994211;28;19937;-73
2021/10/07 13:15:07;;;;;;;;;;;14.00;99.90;;;;;;4985297;28;19926;-73
2021/10/07 13:17:34;;;;;;;;;;;14.00;99.90;;;;;;4984439;28;19926;-73
2021/10/07 13:20:06;;;;;;;;;;;14.00;99.90;;;;;;4970272;28;19934;-73
2021/10/07 13:22:36;;;;;;;;;;;14.10;99.90;;;;;;4972191;28;20403;-73
2021/10/07 13:25:07;;;;;;;;;;;14.20;99.90;;;;;;4978711;28;20408;-73
2021/10/07 13:27:40;;;;;;;;;;;14.30;99.90;;;;;;4978409;28;20415;-73
2021/10/07 13:30:16;;;;;;;;;;;14.40;99.90;;;;;;4978465;28;19926;-73
2021/10/07 13:32:44;;;;;;;;;;;14.40;99.90;;;;;;4995326;28;19932;-73
2021/10/07 13:35:11;;;;;;;;;;;14.20;99.90;;;;;;4973808;28;19926;-72
2021/10/07 13:37:49;;;;;;;;;;;14.20;99.90;;;;;;4977980;28;19930;-73
2021/10/07 13:40:21;;;;;;;;;;;14.10;99.90;;;;;;4981831;28;19933;-73
2021/10/07 13:42:54;;;;;;;;;;;14.00;99.90;;;;;;5000097;28;19929;-73
2021/10/07 13:45:26;;;;;;;;;;;13.90;99.90;;;;;;4991914;28;19925;-74
2021/10/07 13:47:58;;;;;;;;;;;13.90;99.90;;;;;;4991189;28;20544;-73
2021/10/07 13:50:30;;;;;;;;;;;13.80;99.90;;;;;;4994002;28;19925;-73
2021/10/07 13:52:58;;;;;;;;;;;13.70;99.90;;;;;;4978357;28;20215;-73
2021/10/07 13:55:26;;;;;;;;;;;13.80;99.90;;;;;;5011660;28;19925;-72
2021/10/07 13:57:58;;;;;;;;;;;13.80;99.90;;;;;;4995395;28;19935;-73
2021/10/07 14:00:30;;;;;;;;;;;13.70;99.90;;;;;;4995161;28;19925;-73
2021/10/07 14:02:57;;;;;;;;;;;13.70;99.90;;;;;;5014054;28;19925;-73
2021/10/07 14:05:34;;;;;;;;;;;13.60;99.90;;;;;;4981098;28;19933;-73
2021/10/07 14:08:05;;;;;;;;;;;13.60;99.90;;;;;;4997143;28;19925;-73
2021/10/07 14:10:32;;;;;;;;;;;13.50;99.90;;;;;;4996830;28;20304;-73
2021/10/07 14:12:59;;;;;;;;;;;13.50;99.90;;;;;;4997194;28;19926;-73
2021/10/07 14:15:31;;;;;;;;;;;13.50;99.90;;;;;;4996525;28;19925;-73
2021/10/07 14:17:58;;;;;;;;;;;13.50;99.90;;;;;;4996980;28;19925;-73
2021/10/07 14:20:30;;;;;;;;;;;13.50;99.90;;;;;;4996782;28;19925;-73
2021/10/07 14:23:02;;;;;;;;;;;13.50;99.90;;;;;;4996676;28;19925;-73
2021/10/07 14:25:29;;;;;;;;;;;13.50;99.90;;;;;;4996646;28;20289;-73
2021/10/07 14:27:56;;;;;;;;;;;13.50;99.90;;;;;;4996774;28;20497;-73
2021/10/07 14:30:28;;;;;;;;;;;13.50;99.90;;;;;;4996718;28;19929;-73
2021/10/07 14:33:00;;;;;;;;;;;13.50;99.90;;;;;;4996424;28;19925;-73
2021/10/07 14:35:32;;;;;;;;;;;13.50;99.90;;;;;;5013736;28;19929;-73
2021/10/07 14:38:04;;;;;;;;;;;13.50;99.90;;;;;;4996907;28;20388;-73
2021/10/07 14:40:36;;;;;;;;;;;13.50;99.90;;;;;;5013515;28;19929;-73
2021/10/07 14:43:07;;;;;;;;;;;13.50;99.90;;;;;;4996840;28;20411;-72
2021/10/07 14:45:34;;;;;;;;;;;13.50;99.90;;;;;;4979151;28;20391;-72
2021/10/07 14:48:06;;;;;;;;;;;13.50;99.90;;;;;;4996604;28;19926;-72
2021/10/07 14:50:33;;;;;;;;;;;13.40;99.90;;;;;;4995720;28;19932;-73
2021/10/07 14:53:07;;;;;;;;;;;13.50;99.90;;;;;;4996081;28;19933;-73
2021/10/07 14:55:33;;;;;;;;;;;13.40;99.90;;;;;;4982250;28;19949;-73